Time;durP1;ratioP1;P1;durP2;ratioP2;P2;SDS_P1;SDS_P2;PMS_P1;PMS_P2;Temp;Humidity;BMP_temperature;BMP_pressure;BME280_temperature;BME280_humidity;BME280_pressure;Samples;Min_cycle;Max_cycle;Signal;HPM_P1;HPM_P2
2022/06/24 00:02:03;;;;;;;;;38.67;32.00;;;;;;;;5098120;27;45340;-71
2022/06/24 00:04:30;;;;;;;;;44.33;34.33;;;;;;;;5098008;27;46662;-70
2022/06/24 00:06:58;;;;;;;;;35.33;30.33;;;;;;;;5098134;27;45252;-71
2022/06/24 00:09:29;;;;;;;;;40.33;33.00;;;;;;;;5096970;27;45375;-70
2022/06/24 00:12:01;;;;;;;;;38.33;32.33;;;;;;;;5098268;27;45329;-71
2022/06/24 00:14:26;;;;;;;;;40.33;35.00;;;;;;;;5098078;27;45705;-71
2022/06/24 00:17:00;;;;;;;;;42.67;37.00;;;;;;;;5097998;27;45327;-71
2022/06/24 00:19:26;;;;;;;;;37.67;31.00;;;;;;;;5098216;27;45533;-71
2022/06/24 00:22:08;;;;;;;;;41.00;35.67;;;;;;;;5096709;27;45409;-71
2022/06/24 00:24:34;;;;;;;;;35.67;31.67;;;;;;;;5097491;27;45451;-71
2022/06/24 00:26:59;;;;;;;;;32.00;27.67;;;;;;;;5097869;27;45315;-70
2022/06/24 00:29:29;;;;;;;;;32.67;28.33;;;;;;;;5097877;27;45501;-70
2022/06/24 00:32:00;;;;;;;;;44.75;37.00;;;;;;;;5098112;27;45371;-71
2022/06/24 00:34:26;;;;;;;;;33.00;28.67;;;;;;;;5097726;27;45315;-70
2022/06/24 00:36:51;;;;;;;;;36.33;29.67;;;;;;;;5097497;27;45415;-70
2022/06/24 00:39:16;;;;;;;;;29.33;27.33;;;;;;;;5097986;27;45383;-70
2022/06/24 00:41:41;;;;;;;;;34.67;30.00;;;;;;;;5097975;27;45473;-70
2022/06/24 00:44:10;;;;;;;;;36.67;30.00;;;;;;;;5097595;27;45437;-70
2022/06/24 00:46:37;;;;;;;;;32.00;29.67;;;;;;;;5097758;27;45252;-71
2022/06/24 00:49:04;;;;;;;;;32.67;27.67;;;;;;;;5098263;27;45453;-71
2022/06/24 00:51:37;;;;;;;;;46.67;38.00;;;;;;;;5101467;27;45440;-70
2022/06/24 00:54:09;;;;;;;;;33.67;30.67;;;;;;;;5101116;27;46750;-70
2022/06/24 00:56:34;;;;;;;;;29.67;24.67;;;;;;;;5101118;27;45232;-70
2022/06/24 00:59:00;;;;;;;;;27.67;26.67;;;;;;;;5101088;27;45295;-71
2022/06/24 01:01:30;;;;;;;;;28.33;25.67;;;;;;;;5101305;27;45489;-70
2022/06/24 01:03:58;;;;;;;;;26.67;26.67;;;;;;;;5100906;27;46058;-70
2022/06/24 01:06:24;;;;;;;;;25.67;25.67;;;;;;;;5101076;27;45461;-70
2022/06/24 01:08:50;;;;;;;;;29.67;26.67;;;;;;;;5099683;27;45329;-70
2022/06/24 01:11:25;;;;;;;;;31.67;29.67;;;;;;;;5101174;27;45352;-70
2022/06/24 01:13:50;;;;;;;;;27.33;26.00;;;;;;;;5099563;27;47149;-69
2022/06/24 01:16:15;;;;;;;;;31.00;29.67;;;;;;;;5099283;27;45465;-70
2022/06/24 01:18:41;;;;;;;;;32.00;30.00;;;;;;;;5100741;27;45564;-70
2022/06/24 01:21:06;;;;;;;;;35.33;29.67;;;;;;;;5101240;27;45187;-70
2022/06/24 01:23:31;;;;;;;;;36.33;33.67;;;;;;;;5100464;27;45415;-70
2022/06/24 01:25:56;;;;;;;;;34.00;32.67;;;;;;;;5100673;27;45232;-70
2022/06/24 01:28:22;;;;;;;;;40.00;33.00;;;;;;;;5100867;27;45249;-70
2022/06/24 01:30:47;;;;;;;;;30.00;29.33;;;;;;;;5099547;27;45420;-70
2022/06/24 01:33:12;;;;;;;;;36.67;31.33;;;;;;;;5100488;27;46414;-71
2022/06/24 01:35:37;;;;;;;;;38.67;34.67;;;;;;;;5100439;27;45416;-70
2022/06/24 01:38:02;;;;;;;;;37.00;33.33;;;;;;;;5100562;27;45417;-70
2022/06/24 01:40:28;;;;;;;;;27.33;27.33;;;;;;;;5100845;27;45211;-70
2022/06/24 01:42:53;;;;;;;;;38.67;34.67;;;;;;;;5100148;27;46688;-70
2022/06/24 01:45:18;;;;;;;;;36.33;34.00;;;;;;;;5100702;27;45387;-70
2022/06/24 01:47:43;;;;;;;;;38.67;31.33;;;;;;;;5100409;27;45353;-70
2022/06/24 01:50:09;;;;;;;;;35.33;31.33;;;;;;;;5100676;27;45359;-70
2022/06/24 01:52:34;;;;;;;;;40.00;34.33;;;;;;;;5100181;27;45734;-70
2022/06/24 01:54:59;;;;;;;;;34.33;30.67;;;;;;;;5100256;27;45409;-70
2022/06/24 01:57:25;;;;;;;;;33.67;31.67;;;;;;;;5100477;27;45270;-70
2022/06/24 01:59:51;;;;;;;;;37.00;33.33;;;;;;;;5100172;27;45605;-70
2022/06/24 02:02:16;;;;;;;;;38.00;34.33;;;;;;;;5097862;27;46282;-70
2022/06/24 02:04:41;;;;;;;;;34.33;30.33;;;;;;;;5098540;27;45379;-70
2022/06/24 02:07:07;;;;;;;;;35.00;33.33;;;;;;;;5100317;27;45374;-70
2022/06/24 02:13:26;;;;;;;;;36.67;32.00;;;;;;;;5100497;27;45442;-70
2022/06/24 02:15:01;;;;;;;;;39.00;32.33;;;;;;;;5099835;27;45389;-70
2022/06/24 02:17:26;;;;;;;;;35.00;30.67;;;;;;;;5099968;27;45394;-70
2022/06/24 02:19:52;;;;;;;;;38.67;32.67;;;;;;;;5100091;27;45314;-70
2022/06/24 02:22:17;;;;;;;;;43.33;34.33;;;;;;;;5099536;27;45515;-70
2022/06/24 02:24:42;;;;;;;;;44.67;33.00;;;;;;;;5099906;27;45226;-70
2022/06/24 02:27:07;;;;;;;;;41.00;35.33;;;;;;;;5099807;27;45398;-70
2022/06/24 02:29:33;;;;;;;;;37.00;34.00;;;;;;;;5100020;27;45334;-70
2022/06/24 02:31:58;;;;;;;;;31.67;27.67;;;;;;;;5099748;27;45724;-70
2022/06/24 02:34:23;;;;;;;;;41.67;33.67;;;;;;;;5099532;27;45464;-70
2022/06/24 02:36:48;;;;;;;;;43.33;33.00;;;;;;;;5099749;27;45241;-70
2022/06/24 02:39:13;;;;;;;;;29.33;27.33;;;;;;;;5099877;27;45201;-70
2022/06/24 02:41:39;;;;;;;;;42.00;33.33;;;;;;;;5099430;27;46337;-70
2022/06/24 02:44:04;;;;;;;;;36.33;32.67;;;;;;;;5099651;27;45321;-70
2022/06/24 02:46:29;;;;;;;;;32.00;29.00;;;;;;;;5099546;27;45289;-70
2022/06/24 02:48:54;;;;;;;;;33.00;30.67;;;;;;;;5099552;27;45306;-70
2022/06/24 02:51:20;;;;;;;;;34.67;31.00;;;;;;;;5099179;27;46507;-70
2022/06/24 02:53:45;;;;;;;;;32.33;28.67;;;;;;;;5099461;27;45729;-70
2022/06/24 02:56:14;;;;;;;;;35.67;33.67;;;;;;;;5099442;27;45295;-70
2022/06/24 02:58:39;;;;;;;;;30.67;26.00;;;;;;;;5098896;27;45475;-69
2022/06/24 03:01:05;;;;;;;;;31.00;27.33;;;;;;;;5097999;27;46159;-70
2022/06/24 03:03:31;;;;;;;;;39.00;31.00;;;;;;;;5098889;27;45408;-70
2022/06/24 03:05:56;;;;;;;;;32.33;28.33;;;;;;;;5099275;27;45429;-70
2022/06/24 03:08:22;;;;;;;;;29.33;27.33;;;;;;;;5099417;27;45417;-70
2022/06/24 03:10:49;;;;;;;;;31.67;26.00;;;;;;;;5099002;27;45755;-70
2022/06/24 03:13:15;;;;;;;;;32.33;27.67;;;;;;;;5098765;27;45231;-70
2022/06/24 03:15:41;;;;;;;;;29.33;28.00;;;;;;;;5098904;27;45431;-70
2022/06/24 03:18:06;;;;;;;;;25.33;24.67;;;;;;;;5099243;27;45156;-70
2022/06/24 03:20:31;;;;;;;;;25.33;24.33;;;;;;;;5098785;27;45314;-70
2022/06/24 03:22:57;;;;;;;;;24.00;23.00;;;;;;;;5098675;27;45520;-70
2022/06/24 03:25:22;;;;;;;;;23.67;23.00;;;;;;;;5099122;27;45264;-70
2022/06/24 03:27:47;;;;;;;;;24.67;23.33;;;;;;;;5098988;27;45204;-72
2022/06/24 03:30:13;;;;;;;;;29.67;26.33;;;;;;;;5098614;27;46592;-72
2022/06/24 03:32:39;;;;;;;;;19.67;18.33;;;;;;;;5098788;27;45765;-72
2022/06/24 03:35:04;;;;;;;;;22.33;18.67;;;;;;;;5098751;27;45350;-73
2022/06/24 03:37:30;;;;;;;;;25.00;20.67;;;;;;;;5099015;27;45429;-73
2022/06/24 03:39:55;;;;;;;;;25.67;24.33;;;;;;;;5098525;27;46673;-72
2022/06/24 03:42:21;;;;;;;;;21.67;20.67;;;;;;;;5098621;27;45484;-72
2022/06/24 03:44:46;;;;;;;;;29.67;24.33;;;;;;;;5098671;27;45389;-72
2022/06/24 03:47:11;;;;;;;;;23.67;21.33;;;;;;;;5098830;27;45383;-72
2022/06/24 03:49:37;;;;;;;;;21.33;16.67;;;;;;;;5098369;27;46539;-72
2022/06/24 03:52:02;;;;;;;;;23.33;18.67;;;;;;;;5097062;27;46149;-70
2022/06/24 03:54:27;;;;;;;;;18.67;16.67;;;;;;;;5098665;27;45797;-70
2022/06/24 03:56:53;;;;;;;;;22.33;20.67;;;;;;;;5097389;27;45246;-70
2022/06/24 03:59:18;;;;;;;;;21.00;18.67;;;;;;;;5098104;27;45782;-70
2022/06/24 04:01:43;;;;;;;;;20.00;20.00;;;;;;;;5098187;27;45380;-70
2022/06/24 04:04:09;;;;;;;;;19.67;19.67;;;;;;;;5098165;27;45390;-70
2022/06/24 04:06:34;;;;;;;;;18.00;18.00;;;;;;;;5098652;27;45253;-70
2022/06/24 04:08:59;;;;;;;;;28.00;22.33;;;;;;;;5098079;27;45283;-70
2022/06/24 04:11:24;;;;;;;;;23.00;21.67;;;;;;;;5098238;27;45281;-70
2022/06/24 04:13:50;;;;;;;;;23.67;22.33;;;;;;;;5098208;27;45335;-70
2022/06/24 04:16:15;;;;;;;;;19.00;17.33;;;;;;;;5098294;27;45481;-70
2022/06/24 04:18:40;;;;;;;;;24.67;20.33;;;;;;;;5098240;27;46562;-70
2022/06/24 04:21:12;;;;;;;;;24.33;21.67;;;;;;;;5097927;27;45314;-70
2022/06/24 04:23:38;;;;;;;;;20.67;19.33;;;;;;;;5097386;27;45473;-70
2022/06/24 04:26:03;;;;;;;;;21.33;18.33;;;;;;;;5098366;27;45299;-71
2022/06/24 04:28:29;;;;;;;;;23.00;23.00;;;;;;;;5097820;27;45354;-70
2022/06/24 04:30:54;;;;;;;;;30.33;27.67;;;;;;;;5098086;27;45475;-70
2022/06/24 04:33:19;;;;;;;;;32.33;23.00;;;;;;;;5097973;27;45173;-70
2022/06/24 04:35:44;;;;;;;;;23.33;20.67;;;;;;;;5097840;27;45351;-71
2022/06/24 04:38:10;;;;;;;;;20.33;20.00;;;;;;;;5097867;27;45562;-70
2022/06/24 04:40:35;;;;;;;;;20.67;19.00;;;;;;;;5097678;27;45316;-70
2022/06/24 04:43:00;;;;;;;;;26.33;22.67;;;;;;;;5097932;27;45249;-70
2022/06/24 04:45:25;;;;;;;;;24.67;24.67;;;;;;;;5098023;27;45302;-69
2022/06/24 04:47:51;;;;;;;;;32.00;27.33;;;;;;;;5097547;27;46090;-69
2022/06/24 04:50:16;;;;;;;;;23.33;22.33;;;;;;;;5097670;27;45196;-70
2022/06/24 04:52:41;;;;;;;;;29.00;25.33;;;;;;;;5097569;27;45200;-69
2022/06/24 04:55:08;;;;;;;;;26.67;22.67;;;;;;;;5097925;27;45350;-69
2022/06/24 04:57:33;;;;;;;;;30.00;26.33;;;;;;;;5097208;27;45518;-71
2022/06/24 04:59:59;;;;;;;;;28.67;28.67;;;;;;;;5097156;27;45393;-71
2022/06/24 05:02:24;;;;;;;;;28.67;23.67;;;;;;;;5097557;27;45382;-71
2022/06/24 05:04:50;;;;;;;;;27.00;25.33;;;;;;;;5097378;27;45329;-71
2022/06/24 05:07:16;;;;;;;;;25.33;25.33;;;;;;;;5097482;27;45332;-71
2022/06/24 05:09:42;;;;;;;;;25.00;23.33;;;;;;;;5097175;27;45312;-70
2022/06/24 05:12:08;;;;;;;;;21.33;19.67;;;;;;;;5097385;27;45257;-69
2022/06/24 05:14:33;;;;;;;;;22.67;18.00;;;;;;;;5097551;27;45391;-69
2022/06/24 05:16:59;;;;;;;;;22.33;21.67;;;;;;;;5096930;27;45389;-69
2022/06/24 05:19:24;;;;;;;;;23.00;20.00;;;;;;;;5097281;27;45386;-70
2022/06/24 05:21:49;;;;;;;;;24.67;21.67;;;;;;;;5097398;27;45335;-70
2022/06/24 05:24:14;;;;;;;;;22.67;20.33;;;;;;;;5097438;27;45425;-70
2022/06/24 05:26:40;;;;;;;;;25.67;23.67;;;;;;;;5097226;27;46496;-70
2022/06/24 05:29:05;;;;;;;;;25.00;22.33;;;;;;;;5097029;27;45339;-69
2022/06/24 05:31:31;;;;;;;;;24.33;22.33;;;;;;;;5097085;27;45260;-71
2022/06/24 05:33:56;;;;;;;;;23.00;20.67;;;;;;;;5096130;27;45452;-70
2022/06/24 05:36:21;;;;;;;;;24.00;21.33;;;;;;;;5096576;27;46141;-72
2022/06/24 05:38:46;;;;;;;;;17.33;16.33;;;;;;;;5100628;27;45464;-71
2022/06/24 05:41:12;;;;;;;;;15.00;12.00;;;;;;;;5100624;27;45284;-71
2022/06/24 05:43:37;;;;;;;;;13.67;11.67;;;;;;;;5100777;27;45421;-71
2022/06/24 05:46:03;;;;;;;;;14.00;10.33;;;;;;;;5100213;27;45554;-71
2022/06/24 05:48:30;;;;;;;;;12.00;12.00;;;;;;;;5100332;27;45449;-71
2022/06/24 05:50:55;;;;;;;;;14.00;14.00;;;;;;;;5100727;27;45409;-72
2022/06/24 05:56:04;;;;;;;;;10.33;10.33;;;;;;;;5100194;27;45732;-72
2022/06/24 05:58:30;;;;;;;;;9.00;9.00;;;;;;;;5100151;27;45324;-69
2022/06/24 06:00:55;;;;;;;;;11.67;9.67;;;;;;;;5100117;27;45342;-70
2022/06/24 06:03:24;;;;;;;;;10.00;10.00;;;;;;;;5100356;27;45385;-69
2022/06/24 06:05:50;;;;;;;;;12.00;11.00;;;;;;;;5100025;27;45382;-71
2022/06/24 06:08:15;;;;;;;;;10.33;9.33;;;;;;;;5099964;27;45295;-71
2022/06/24 06:10:43;;;;;;;;;12.67;12.00;;;;;;;;5100320;27;45283;-72
2022/06/24 06:13:08;;;;;;;;;11.00;11.00;;;;;;;;5099107;27;45404;-72
2022/06/24 06:15:34;;;;;;;;;31.67;29.33;;;;;;;;5099702;27;46367;-71
2022/06/24 06:18:00;;;;;;;;;15.00;13.33;;;;;;;;5100085;27;45428;-70
2022/06/24 06:20:25;;;;;;;;;12.00;12.00;;;;;;;;5100045;27;45325;-72
2022/06/24 06:22:51;;;;;;;;;13.00;10.67;;;;;;;;5100049;27;45365;-70
2022/06/24 06:25:17;;;;;;;;;10.00;10.00;;;;;;;;5099730;27;46299;-70
2022/06/24 06:27:42;;;;;;;;;10.33;10.33;;;;;;;;5099722;27;45363;-70
2022/06/24 06:30:07;;;;;;;;;14.33;13.33;;;;;;;;5100012;27;45240;-72
2022/06/24 06:32:33;;;;;;;;;21.33;20.33;;;;;;;;5100036;27;45233;-72
2022/06/24 06:34:58;;;;;;;;;37.00;33.33;;;;;;;;5099512;27;46224;-72
2022/06/24 06:37:24;;;;;;;;;31.33;30.67;;;;;;;;5099470;27;45328;-72
2022/06/24 06:39:49;;;;;;;;;24.00;22.67;;;;;;;;5099790;27;45404;-72
2022/06/24 06:42:14;;;;;;;;;23.33;20.67;;;;;;;;5099960;27;45192;-69
2022/06/24 06:44:39;;;;;;;;;20.67;20.00;;;;;;;;5099315;27;45662;-70
2022/06/24 06:47:05;;;;;;;;;22.00;19.67;;;;;;;;5097551;27;45357;-70
2022/06/24 06:49:31;;;;;;;;;24.67;20.00;;;;;;;;5099667;27;45348;-70
2022/06/24 06:51:59;;;;;;;;;21.67;19.67;;;;;;;;5099558;27;45224;-70
2022/06/24 06:54:24;;;;;;;;;18.00;14.33;;;;;;;;5099421;27;45185;-69
2022/06/24 06:56:49;;;;;;;;;16.33;16.33;;;;;;;;5099276;27;45374;-69
2022/06/24 06:59:14;;;;;;;;;16.67;16.33;;;;;;;;5099323;27;45336;-69
2022/06/24 07:01:40;;;;;;;;;14.00;10.67;;;;;;;;5099248;27;45709;-70
2022/06/24 07:04:05;;;;;;;;;15.33;15.33;;;;;;;;5099154;27;45294;-70
2022/06/24 07:06:30;;;;;;;;;16.33;14.67;;;;;;;;5099025;27;45401;-70
2022/06/24 07:08:55;;;;;;;;;12.67;12.33;;;;;;;;5099233;27;45444;-69
2022/06/24 07:11:20;;;;;;;;;14.33;12.67;;;;;;;;5099598;27;45381;-69
2022/06/24 07:13:46;;;;;;;;;12.00;11.67;;;;;;;;5099012;27;46583;-69
2022/06/24 07:16:11;;;;;;;;;16.00;13.33;;;;;;;;5099065;27;45436;-71
2022/06/24 07:18:36;;;;;;;;;11.33;11.33;;;;;;;;5099165;27;45279;-70
2022/06/24 07:21:01;;;;;;;;;48.33;39.00;;;;;;;;5098814;27;45224;-69
2022/06/24 07:23:27;;;;;;;;;16.00;13.00;;;;;;;;5097148;27;47367;-68
2022/06/24 07:25:55;;;;;;;;;15.33;14.67;;;;;;;;5098712;27;45416;-69
2022/06/24 07:28:20;;;;;;;;;16.00;13.67;;;;;;;;5098957;27;45403;-68
2022/06/24 07:30:45;;;;;;;;;13.00;9.67;;;;;;;;5099029;27;45353;-70
2022/06/24 07:33:10;;;;;;;;;18.33;15.67;;;;;;;;5098318;27;45687;-68
2022/06/24 07:35:36;;;;;;;;;16.33;13.67;;;;;;;;5098723;27;45280;-68
2022/06/24 07:38:01;;;;;;;;;15.00;14.00;;;;;;;;5098964;27;45283;-68
2022/06/24 07:40:26;;;;;;;;;17.33;14.67;;;;;;;;5098702;27;45509;-68
2022/06/24 07:42:51;;;;;;;;;13.67;11.33;;;;;;;;5098301;27;45687;-68
2022/06/24 07:45:17;;;;;;;;;21.00;19.33;;;;;;;;5098633;27;45330;-68
2022/06/24 07:47:43;;;;;;;;;20.67;17.00;;;;;;;;5098584;27;45216;-68
2022/06/24 07:50:08;;;;;;;;;19.00;15.00;;;;;;;;5098833;27;45204;-68
2022/06/24 07:52:33;;;;;;;;;17.33;16.00;;;;;;;;5098231;27;45307;-68
2022/06/24 07:57:42;;;;;;;;;21.00;16.00;;;;;;;;5098410;27;45227;-68
2022/06/24 08:00:08;;;;;;;;;15.67;15.67;;;;;;;;5097225;27;45291;-68
2022/06/24 08:02:33;;;;;;;;;21.67;18.00;;;;;;;;5098031;27;45541;-68
2022/06/24 08:04:58;;;;;;;;;18.67;18.00;;;;;;;;5097984;27;45456;-68
2022/06/24 08:07:24;;;;;;;;;21.67;18.33;;;;;;;;5098229;27;45289;-68
2022/06/24 08:09:49;;;;;;;;;17.67;17.67;;;;;;;;5098443;27;45320;-69
2022/06/24 08:12:14;;;;;;;;;19.33;17.33;;;;;;;;5098064;27;45284;-69
2022/06/24 08:14:39;;;;;;;;;18.67;18.33;;;;;;;;5097991;27;45566;-70
2022/06/24 08:17:04;;;;;;;;;21.33;17.67;;;;;;;;5098069;27;45372;-70
2022/06/24 08:19:30;;;;;;;;;14.33;14.33;;;;;;;;5098585;27;45292;-70
2022/06/24 08:21:55;;;;;;;;;14.67;13.67;;;;;;;;5097737;27;47221;-69
2022/06/24 08:24:20;;;;;;;;;18.67;16.67;;;;;;;;5098219;27;45822;-68
2022/06/24 08:26:46;;;;;;;;;20.33;17.00;;;;;;;;5098217;27;45378;-68
2022/06/24 08:29:11;;;;;;;;;13.67;12.00;;;;;;;;5098301;27;45804;-67
2022/06/24 08:31:36;;;;;;;;;28.33;27.67;;;;;;;;5098045;27;45984;-71
2022/06/24 08:34:02;;;;;;;;;56.67;44.67;;;;;;;;5097929;27;45264;-69
2022/06/24 08:36:27;;;;;;;;;51.50;43.25;;;;;;;;5098147;27;45349;-68
2022/06/24 08:38:53;;;;;;;;;48.33;37.67;;;;;;;;5098118;27;45640;-68
2022/06/24 08:41:23;;;;;;;;;52.50;43.75;;;;;;;;5097628;27;45564;-68
2022/06/24 08:43:49;;;;;;;;;22.67;22.33;;;;;;;;5097840;27;45252;-69
2022/06/24 08:46:15;;;;;;;;;19.67;17.67;;;;;;;;5097124;27;45477;-69
2022/06/24 08:48:41;;;;;;;;;26.00;23.67;;;;;;;;5097857;27;45315;-72
2022/06/24 08:51:07;;;;;;;;;14.33;14.33;;;;;;;;5099666;27;45366;-70
2022/06/24 08:53:33;;;;;;;;;8.00;6.00;;;;;;;;5106461;27;45284;-70
2022/06/24 08:55:58;;;;;;;;;6.00;6.00;;;;;;;;5097050;27;45323;-71
2022/06/24 08:58:24;;;;;;;;;4.00;3.67;;;;;;;;5096985;27;45246;-68
2022/06/24 09:00:49;;;;;;;;;8.00;8.00;;;;;;;;5097345;27;46215;-71
2022/06/24 09:03:14;;;;;;;;;7.00;6.00;;;;;;;;5097435;27;45459;-77
2022/06/24 09:05:43;;;;;;;;;49.33;40.33;;;;;;;;5097280;27;45297;-74
2022/06/24 09:08:09;;;;;;;;;2.00;2.00;;;;;;;;5097650;27;45396;-68
2022/06/24 09:10:35;;;;;;;;;3.00;2.00;;;;;;;;5098912;27;45483;-70
2022/06/24 09:13:01;;;;;;;;;3.33;3.33;;;;;;;;5100935;27;45335;-69
2022/06/24 09:15:27;;;;;;;;;2.00;2.00;;;;;;;;5101288;27;45371;-73
2022/06/24 09:17:54;;;;;;;;;2.00;2.00;;;;;;;;5100526;27;45431;-73
2022/06/24 09:20:23;;;;;;;;;22.33;20.67;;;;;;;;5100829;27;46403;-71
2022/06/24 09:22:50;;;;;;;;;2.00;2.00;;;;;;;;5100337;27;45457;-71
2022/06/24 09:25:15;;;;;;;;;2.00;1.00;;;;;;;;5100780;27;45393;-70
2022/06/24 09:27:47;;;;;;;;;3.67;2.33;;;;;;;;5101092;27;45422;-70
2022/06/24 09:30:14;;;;;;;;;1.00;1.00;;;;;;;;5100536;27;45331;-70
2022/06/24 09:32:52;;;;;;;;;3.33;3.33;;;;;;;;5100652;27;45451;-73
2022/06/24 09:35:18;;;;;;;;;0.33;0.33;;;;;;;;5100090;27;45418;-74
2022/06/24 09:37:44;;;;;;;;;1.00;1.00;;;;;;;;5100718;27;45618;-72
2022/06/24 09:40:17;;;;;;;;;0.33;0.33;;;;;;;;5100574;27;45665;-70
2022/06/24 09:42:42;;;;;;;;;1.00;1.00;;;;;;;;5100379;27;45512;-69
2022/06/24 09:45:08;;;;;;;;;1.00;1.00;;;;;;;;5100252;27;45329;-72
2022/06/24 09:47:39;;;;;;;;;2.00;2.00;;;;;;;;5100529;27;46004;-71
2022/06/24 09:50:05;;;;;;;;;1.00;1.00;;;;;;;;5100475;27;45438;-70
2022/06/24 09:52:30;;;;;;;;;1.67;1.67;;;;;;;;5100293;27;45390;-70
2022/06/24 09:54:56;;;;;;;;;1.33;1.33;;;;;;;;5100653;27;45841;-72
2022/06/24 09:57:21;;;;;;;;;11.67;10.33;;;;;;;;5100257;27;45402;-71
2022/06/24 10:02:32;;;;;;;;;1.00;1.00;;;;;;;;5100125;27;45295;-71
2022/06/24 10:04:59;;;;;;;;;3.00;3.00;;;;;;;;5100331;27;45429;-71
2022/06/24 10:07:27;;;;;;;;;2.00;2.00;;;;;;;;5100308;27;45223;-71
2022/06/24 10:09:53;;;;;;;;;1.00;1.00;;;;;;;;5099979;27;45320;-67
2022/06/24 10:12:21;;;;;;;;;1.00;1.00;;;;;;;;5100012;27;45460;-72
2022/06/24 10:14:46;;;;;;;;;0.67;0.67;;;;;;;;5099922;27;45354;-72
2022/06/24 10:17:12;;;;;;;;;2.00;2.00;;;;;;;;5100162;27;45347;-69
2022/06/24 10:19:38;;;;;;;;;2.00;1.00;;;;;;;;5100039;27;45345;-73
2022/06/24 10:22:03;;;;;;;;;1.00;1.00;;;;;;;;5098773;27;45321;-71
2022/06/24 10:24:38;;;;;;;;;1.00;1.00;;;;;;;;5100064;27;45402;-70
2022/06/24 10:27:03;;;;;;;;;1.00;1.00;;;;;;;;5100077;27;45405;-71
2022/06/24 10:29:31;;;;;;;;;1.33;1.33;;;;;;;;5099814;27;45668;-69
2022/06/24 10:32:00;;;;;;;;;2.33;1.33;;;;;;;;5099780;27;45242;-72
2022/06/24 10:34:26;;;;;;;;;3.67;3.67;;;;;;;;5099763;27;45572;-71
2022/06/24 10:37:15;;;;;;;;;0.67;0.67;;;;;;;;5099870;27;45394;-69
2022/06/24 10:39:47;;;;;;;;;1.33;0.67;;;;;;;;5094128;27;45672;-70
2022/06/24 10:42:14;;;;;;;;;1.00;1.00;;;;;;;;5099670;27;45516;-70
2022/06/24 10:44:51;;;;;;;;;3.00;1.33;;;;;;;;5099734;27;45297;-72
2022/06/24 10:47:16;;;;;;;;;4.33;3.00;;;;;;;;5099714;27;45251;-72
2022/06/24 10:50:12;;;;;;;;;1.67;1.67;;;;;;;;5099352;27;46140;-71
2022/06/24 10:52:48;;;;;;;;;1.00;1.00;;;;;;;;5099254;27;45266;-72
2022/06/24 10:57:45;;;;;;;;;1.00;1.00;;;;;;;;5099502;27;45363;-71
2022/06/24 11:00:10;;;;;;;;;2.67;1.67;;;;;;;;5099129;27;46269;-70
2022/06/24 11:02:36;;;;;;;;;2.00;2.00;;;;;;;;5099134;27;45224;-71
2022/06/24 11:05:01;;;;;;;;;2.67;2.67;;;;;;;;5099491;27;45273;-72
2022/06/24 11:07:27;;;;;;;;;2.33;2.33;;;;;;;;5099463;27;45409;-71
2022/06/24 11:09:52;;;;;;;;;2.67;1.33;;;;;;;;5098739;27;45804;-70
2022/06/24 11:12:29;;;;;;;;;2.00;2.00;;;;;;;;5099207;27;45368;-70
2022/06/24 11:14:55;;;;;;;;;0.67;0.67;;;;;;;;5099012;27;45451;-71
2022/06/24 11:17:24;;;;;;;;;1.00;1.00;;;;;;;;5104833;27;45348;-71
2022/06/24 11:19:50;;;;;;;;;1.67;1.67;;;;;;;;5119709;27;45526;-70
2022/06/24 11:22:15;;;;;;;;;0.67;0.67;;;;;;;;5119316;27;45326;-70
2022/06/24 11:24:41;;;;;;;;;3.67;3.67;;;;;;;;5119646;27;45218;-71
2022/06/24 11:27:08;;;;;;;;;2.00;1.00;;;;;;;;5119893;27;45165;-70
2022/06/24 11:29:52;;;;;;;;;0.67;0.67;;;;;;;;5119089;27;45452;-70
2022/06/24 11:32:17;;;;;;;;;3.00;2.00;;;;;;;;5119345;27;45466;-71
2022/06/24 11:34:43;;;;;;;;;1.67;1.67;;;;;;;;5119209;27;45277;-71
2022/06/24 11:37:08;;;;;;;;;1.33;1.33;;;;;;;;5119525;27;45370;-72
2022/06/24 11:39:33;;;;;;;;;3.67;3.67;;;;;;;;5119116;27;45610;-71
2022/06/24 11:41:58;;;;;;;;;3.67;3.67;;;;;;;;5119226;27;45379;-70
2022/06/24 11:44:37;;;;;;;;;2.00;2.00;;;;;;;;5119159;27;45228;-71
2022/06/24 11:47:04;;;;;;;;;2.00;2.00;;;;;;;;5118068;27;45501;-70
2022/06/24 11:49:31;;;;;;;;;2.00;2.00;;;;;;;;5119171;27;45694;-70
2022/06/24 11:51:56;;;;;;;;;2.67;1.33;;;;;;;;5118965;27;45429;-71
2022/06/24 11:54:25;;;;;;;;;1.33;1.33;;;;;;;;5119039;27;45237;-71
2022/06/24 11:56:50;;;;;;;;;2.00;2.00;;;;;;;;5119265;27;45526;-70
2022/06/24 11:59:19;;;;;;;;;2.00;2.00;;;;;;;;5118312;27;45388;-71
2022/06/24 12:01:44;;;;;;;;;4.67;4.67;;;;;;;;5118925;27;45272;-70
2022/06/24 12:04:12;;;;;;;;;1.00;1.00;;;;;;;;5118922;27;45405;-70
2022/06/24 12:06:38;;;;;;;;;2.67;2.67;;;;;;;;5119321;27;45231;-71
2022/06/24 12:09:03;;;;;;;;;2.00;2.00;;;;;;;;5118663;27;46027;-70
2022/06/24 12:11:28;;;;;;;;;3.00;2.67;;;;;;;;5118644;27;45428;-70
2022/06/24 12:13:55;;;;;;;;;2.00;2.00;;;;;;;;5119211;27;45201;-72
2022/06/24 12:16:20;;;;;;;;;2.00;2.00;;;;;;;;5119135;27;45358;-71
2022/06/24 12:18:45;;;;;;;;;3.00;3.00;;;;;;;;5118598;27;45376;-70
2022/06/24 12:21:10;;;;;;;;;2.00;2.00;;;;;;;;5118774;27;45430;-69
2022/06/24 12:23:39;;;;;;;;;2.67;2.67;;;;;;;;5118571;27;45398;-70
2022/06/24 12:26:15;;;;;;;;;2.67;2.67;;;;;;;;5119076;27;45268;-71
2022/06/24 12:28:41;;;;;;;;;2.67;2.67;;;;;;;;5116234;27;45429;-71
2022/06/24 12:31:08;;;;;;;;;3.33;3.33;;;;;;;;5108354;27;45334;-71
2022/06/24 12:33:34;;;;;;;;;3.00;2.67;;;;;;;;5098027;27;45310;-71
2022/06/24 12:36:12;;;;;;;;;3.00;3.00;;;;;;;;5098176;27;45203;-71
2022/06/24 12:38:53;;;;;;;;;4.00;4.00;;;;;;;;5097645;27;45495;-71
2022/06/24 12:41:19;;;;;;;;;7.33;5.67;;;;;;;;5097760;27;45274;-73
2022/06/24 12:43:55;;;;;;;;;3.00;2.00;;;;;;;;5097986;27;45441;-70
2022/06/24 12:46:22;;;;;;;;;4.33;3.00;;;;;;;;5100766;27;45414;-74
2022/06/24 12:51:31;;;;;;;;;4.00;4.00;;;;;;;;5101269;27;45391;-73
2022/06/24 12:53:58;;;;;;;;;3.33;2.00;;;;;;;;5101529;27;45465;-71
2022/06/24 12:56:24;;;;;;;;;6.00;4.33;;;;;;;;5101679;27;45295;-70
2022/06/24 12:58:50;;;;;;;;;4.00;4.00;;;;;;;;5100853;27;45865;-70
2022/06/24 13:01:16;;;;;;;;;2.00;2.00;;;;;;;;5101213;27;45327;-72
2022/06/24 13:03:41;;;;;;;;;0.00;0.00;;;;;;;;5101346;27;45509;-71
2022/06/24 13:06:06;;;;;;;;;3.00;2.00;;;;;;;;5101482;27;45483;-71
2022/06/24 13:08:31;;;;;;;;;1.67;1.67;;;;;;;;5100839;27;46578;-71
2022/06/24 13:10:57;;;;;;;;;2.00;2.00;;;;;;;;5100695;27;45327;-71
2022/06/24 13:13:22;;;;;;;;;1.00;1.00;;;;;;;;5101088;27;45216;-70
2022/06/24 13:15:49;;;;;;;;;2.67;2.67;;;;;;;;5101243;27;45264;-71
2022/06/24 13:18:14;;;;;;;;;6.33;6.00;;;;;;;;5100858;27;46588;-71
2022/06/24 13:20:39;;;;;;;;;2.00;2.00;;;;;;;;5100797;27;45506;-71
2022/06/24 13:23:04;;;;;;;;;9.67;9.67;;;;;;;;5100952;27;45188;-71
2022/06/24 13:25:30;;;;;;;;;1.67;1.67;;;;;;;;5101260;27;45433;-71
2022/06/24 13:27:55;;;;;;;;;3.67;3.00;;;;;;;;5100404;27;46287;-72
2022/06/24 13:30:20;;;;;;;;;5.00;4.00;;;;;;;;5100811;27;45395;-71
2022/06/24 13:32:46;;;;;;;;;1.33;1.33;;;;;;;;5100940;27;45453;-71
2022/06/24 13:35:12;;;;;;;;;2.00;2.00;;;;;;;;5101117;27;45429;-70
2022/06/24 13:37:38;;;;;;;;;2.00;2.00;;;;;;;;5100447;27;45416;-71
2022/06/24 13:40:03;;;;;;;;;2.00;2.00;;;;;;;;5100555;27;45417;-71
2022/06/24 13:42:29;;;;;;;;;2.00;2.00;;;;;;;;5100558;27;45376;-71
2022/06/24 13:44:55;;;;;;;;;2.00;2.00;;;;;;;;5100865;27;45308;-70
2022/06/24 13:47:20;;;;;;;;;2.67;1.00;;;;;;;;5100494;27;45476;-70
2022/06/24 13:49:45;;;;;;;;;1.00;1.00;;;;;;;;5100526;27;45236;-70
2022/06/24 13:52:10;;;;;;;;;4.00;3.33;;;;;;;;5100742;27;45309;-71
2022/06/24 13:54:36;;;;;;;;;3.00;3.00;;;;;;;;5100491;27;45161;-72
2022/06/24 13:57:01;;;;;;;;;3.00;3.00;;;;;;;;5099101;27;45459;-71
2022/06/24 13:59:27;;;;;;;;;3.33;2.67;;;;;;;;5100335;27;45238;-71
2022/06/24 14:01:52;;;;;;;;;2.00;2.00;;;;;;;;5100524;27;45211;-72
2022/06/24 14:04:17;;;;;;;;;3.33;3.33;;;;;;;;5100530;27;45276;-71
2022/06/24 14:06:43;;;;;;;;;1.67;1.67;;;;;;;;5100347;27;46827;-72
2022/06/24 14:09:08;;;;;;;;;2.67;2.67;;;;;;;;5099987;27;45244;-71
2022/06/24 14:11:33;;;;;;;;;1.00;1.00;;;;;;;;5100588;27;45456;-71
2022/06/24 14:13:58;;;;;;;;;2.00;2.00;;;;;;;;5100397;27;45346;-71
2022/06/24 14:16:24;;;;;;;;;2.00;2.00;;;;;;;;5100063;27;46494;-71
2022/06/24 14:18:49;;;;;;;;;5.67;3.00;;;;;;;;5099974;27;45347;-71
2022/06/24 14:21:14;;;;;;;;;2.00;2.00;;;;;;;;5100084;27;45294;-72
2022/06/24 14:26:24;;;;;;;;;4.00;3.00;;;;;;;;5099895;27;45760;-72
2022/06/24 14:28:51;;;;;;;;;2.00;2.00;;;;;;;;5099735;27;45281;-71
2022/06/24 14:31:16;;;;;;;;;1.33;1.33;;;;;;;;5100001;27;45356;-73
2022/06/24 14:33:42;;;;;;;;;4.00;3.00;;;;;;;;5100074;27;46134;-73
2022/06/24 14:36:07;;;;;;;;;2.00;2.00;;;;;;;;5099601;27;46183;-71
2022/06/24 14:41:16;;;;;;;;;3.00;3.00;;;;;;;;5099911;27;45355;-72
2022/06/24 14:43:43;;;;;;;;;2.00;2.00;;;;;;;;5099670;27;45387;-71